createdAt,value
2022-09-06T00:00:26.675Z,77.37
2022-09-06T00:02:54.481Z,77.72
2022-09-06T00:05:22.353Z,78.41
2022-09-06T00:07:49.738Z,78.57
2022-09-06T00:10:17.409Z,78.69
2022-09-06T00:12:44.692Z,79.29
2022-09-06T00:15:12.090Z,79.42
2022-09-06T00:17:39.837Z,78.79
2022-09-06T00:20:10.872Z,76.91
2022-09-06T00:22:38.852Z,76.82
2022-09-06T00:25:07.427Z,76.75
2022-09-06T00:27:35.705Z,75.91
2022-09-06T00:30:04.881Z,76.56
2022-09-06T00:32:33.347Z,76.80
2022-09-06T00:35:01.050Z,77.62
2022-09-06T00:37:28.397Z,78.78
2022-09-06T00:39:56.180Z,79.07
2022-09-06T00:42:23.671Z,78.30
2022-09-06T00:44:51.226Z,78.66
2022-09-06T00:47:19.765Z,77.73
2022-09-06T00:49:52.318Z,77.81
2022-09-06T00:52:20.582Z,78.14
2022-09-06T00:54:50.261Z,78.42
2022-09-06T00:57:18.378Z,79.71
2022-09-06T00:59:47.762Z,79.18
2022-09-06T01:02:15.138Z,80.27
2022-09-06T01:04:44.740Z,79.45
2022-09-06T01:07:47.764Z,78.10
2022-09-06T01:10:45.522Z,78.73
2022-09-06T01:13:21.294Z,80.23
2022-09-06T01:16:12.007Z,80.07
2022-09-06T01:19:11.108Z,79.35
2022-09-06T01:21:50.299Z,78.36
2022-09-06T01:24:48.044Z,77.86
2022-09-06T01:27:37.281Z,77.79
2022-09-06T01:30:07.945Z,78.31
2022-09-06T01:32:54.077Z,79.11
2022-09-06T01:35:58.446Z,78.92
2022-09-06T01:38:26.193Z,79.18
2022-09-06T01:40:54.088Z,79.73
2022-09-06T01:43:31.292Z,79.34
2022-09-06T01:46:20.799Z,79.22
2022-09-06T01:48:57.317Z,79.34
2022-09-06T01:51:35.459Z,79.33
2022-09-06T01:54:02.799Z,79.10
2022-09-06T01:56:53.384Z,79.49
2022-09-06T01:59:34.378Z,80.42
2022-09-06T02:02:17.350Z,81.56
2022-09-06T02:04:51.732Z,80.24
2022-09-06T02:07:28.547Z,80.72
2022-09-06T02:10:38.571Z,80.18
2022-09-06T02:13:07.751Z,79.29
2022-09-06T02:15:40.317Z,79.80
2022-09-06T02:18:16.394Z,81.45
2022-09-06T02:20:54.726Z,80.80
2022-09-06T02:23:25.478Z,79.96
2022-09-06T02:26:05.229Z,80.53
2022-09-06T02:28:33.241Z,80.34
2022-09-06T02:31:10.359Z,80.90
2022-09-06T02:33:38.161Z,80.92
2022-09-06T02:36:09.025Z,80.22
2022-09-06T02:38:39.622Z,79.33
2022-09-06T02:41:08.622Z,79.22
2022-09-06T02:43:36.369Z,78.73
2022-09-06T02:46:04.001Z,77.82
2022-09-06T02:48:31.761Z,78.62
2022-09-06T02:51:03.050Z,78.61
2022-09-06T02:53:30.393Z,78.83
2022-09-06T02:55:58.295Z,78.21
2022-09-06T02:58:25.743Z,78.90
2022-09-06T03:00:53.608Z,79.71
2022-09-06T03:03:22.300Z,79.57
2022-09-06T03:05:51.173Z,79.34
2022-09-06T03:08:20.599Z,79.07
2022-09-06T03:10:56.316Z,79.12
2022-09-06T03:13:24.834Z,79.00
2022-09-06T03:15:54.258Z,78.79
2022-09-06T03:18:29.411Z,78.48
2022-09-06T03:20:58.342Z,77.91
2022-09-06T03:23:28.348Z,78.27
2022-09-06T03:25:56.094Z,79.10
2022-09-06T03:28:24.001Z,79.88
2022-09-06T03:30:52.194Z,80.57
2022-09-06T03:33:21.772Z,79.69
2022-09-06T03:35:50.556Z,79.54
2022-09-06T03:38:18.513Z,79.03
2022-09-06T03:40:47.528Z,79.89
2022-09-06T03:43:17.343Z,81.10
2022-09-06T03:45:53.545Z,81.03
2022-09-06T03:48:23.543Z,79.60
2022-09-06T03:50:53.434Z,79.69
2022-09-06T03:53:22.466Z,79.66
2022-09-06T03:55:52.827Z,80.91
2022-09-06T03:58:22.655Z,82.41
2022-09-06T04:00:59.545Z,81.67
2022-09-06T04:03:27.369Z,81.12
2022-09-06T04:05:54.761Z,80.34
2022-09-06T04:08:22.244Z,80.22
2022-09-06T04:10:53.034Z,79.92
2022-09-06T04:13:21.110Z,80.28
2022-09-06T04:15:48.520Z,80.61
2022-09-06T04:18:17.086Z,79.69
2022-09-06T04:20:48.486Z,81.07
2022-09-06T04:23:16.726Z,81.56
2022-09-06T04:25:53.704Z,80.29
2022-09-06T04:28:22.230Z,80.15
2022-09-06T04:31:07.695Z,80.64
2022-09-06T04:33:36.595Z,81.53
2022-09-06T04:36:07.666Z,81.04
2022-09-06T04:38:43.627Z,80.96
2022-09-06T04:41:12.865Z,80.46
2022-09-06T04:43:42.525Z,82.33
2022-09-06T04:46:25.514Z,83.34
2022-09-06T04:48:55.302Z,82.72
2022-09-06T04:51:23.231Z,83.14
2022-09-06T04:53:51.525Z,83.20
2022-09-06T04:56:25.264Z,81.92
2022-09-06T04:58:55.029Z,83.59
2022-09-06T05:01:23.408Z,82.77
2022-09-06T05:03:53.979Z,82.04
2022-09-06T05:06:25.114Z,83.96
2022-09-06T05:08:52.995Z,83.98
2022-09-06T05:11:20.647Z,83.50
2022-09-06T05:13:50.471Z,82.91
2022-09-06T05:16:18.475Z,83.32
2022-09-06T05:18:45.995Z,83.25
2022-09-06T05:21:13.777Z,84.84
2022-09-06T05:23:41.257Z,84.79
2022-09-06T05:26:08.921Z,84.49
2022-09-06T05:28:37.216Z,84.51
2022-09-06T05:31:09.806Z,84.20
2022-09-06T05:33:39.606Z,86.78
2022-09-06T05:36:08.814Z,85.42
2022-09-06T05:38:36.248Z,83.78
2022-09-06T05:41:04.110Z,83.76
2022-09-06T05:43:31.534Z,84.22
2022-09-06T05:45:59.494Z,84.22
2022-09-06T05:48:27.477Z,83.47
2022-09-06T05:51:07.016Z,84.50
2022-09-06T05:53:36.020Z,83.88
2022-09-06T05:56:05.306Z,83.59
2022-09-06T05:58:32.839Z,82.58
2022-09-06T06:01:15.258Z,82.62
2022-09-06T06:03:50.023Z,82.57
2022-09-06T06:06:19.709Z,81.81
2022-09-06T06:08:48.410Z,81.50
2022-09-06T06:11:17.062Z,82.14
2022-09-06T06:13:44.792Z,81.37
2022-09-06T06:16:15.327Z,81.33
2022-09-06T06:18:42.886Z,81.69
2022-09-06T06:21:19.404Z,83.12
2022-09-06T06:23:49.526Z,82.30
2022-09-06T06:26:16.975Z,83.71
2022-09-06T06:28:44.700Z,82.46
2022-09-06T06:31:13.278Z,81.57
2022-09-06T06:33:40.860Z,79.88
2022-09-06T06:36:21.967Z,80.44
2022-09-06T06:38:52.209Z,78.55
2022-09-06T06:41:21.454Z,79.15
2022-09-06T06:43:48.797Z,78.82
2022-09-06T06:46:18.539Z,78.47
2022-09-06T06:48:48.635Z,78.33
2022-09-06T06:51:19.991Z,77.97
2022-09-06T06:53:49.139Z,77.09
2022-09-06T06:56:21.514Z,77.96
2022-09-06T06:58:51.479Z,76.27
2022-09-06T07:01:21.023Z,74.56
2022-09-06T07:03:49.721Z,71.51
2022-09-06T07:06:18.459Z,71.82
2022-09-06T07:08:46.985Z,70.23
2022-09-06T07:11:16.811Z,70.09
2022-09-06T07:13:45.755Z,69.18
2022-09-06T07:16:15.604Z,69.23
2022-09-06T07:18:45.401Z,68.65
2022-09-06T07:26:33.777Z,65.67
2022-09-06T07:29:03.061Z,65.05
2022-09-06T07:34:21.645Z,64.49
2022-09-06T07:36:56.495Z,64.19
2022-09-06T07:39:24.434Z,62.45
2022-09-06T07:41:52.567Z,62.61
2022-09-06T07:44:20.364Z,60.77
2022-09-06T07:46:48.014Z,59.73
2022-09-06T07:49:16.065Z,58.79
2022-09-06T07:51:43.485Z,60.49
2022-09-06T07:54:30.069Z,59.99
2022-09-06T07:56:58.667Z,59.90
2022-09-06T07:59:26.064Z,59.01
2022-09-06T08:01:53.771Z,56.93
2022-09-06T08:04:21.483Z,58.23
2022-09-06T08:09:38.866Z,57.70
2022-09-06T08:12:09.575Z,56.83
2022-09-06T08:14:36.977Z,56.13
2022-09-06T08:17:05.002Z,56.78
2022-09-06T08:19:32.681Z,56.87
2022-09-06T08:22:00.155Z,56.40
2022-09-06T08:24:27.966Z,56.16
2022-09-06T08:26:55.479Z,56.61
2022-09-06T08:29:22.924Z,56.00
2022-09-06T08:31:50.658Z,57.03
2022-09-06T08:34:18.102Z,56.29
2022-09-06T08:36:46.077Z,55.73
2022-09-06T08:39:13.822Z,54.57
2022-09-06T08:41:58.703Z,52.13
2022-09-06T08:44:57.352Z,52.79
2022-09-06T08:47:25.450Z,53.30
2022-09-06T08:50:12.007Z,54.00
2022-09-06T08:53:15.660Z,52.60
2022-09-06T08:55:55.932Z,53.10
2022-09-06T08:58:35.202Z,53.92
2022-09-06T09:01:07.790Z,52.25
2022-09-06T09:03:37.546Z,50.17
2022-09-06T09:06:09.455Z,51.98
2022-09-06T09:09:04.872Z,49.58
2022-09-06T09:11:36.251Z,49.89
2022-09-06T09:14:27.956Z,48.47
2022-09-06T09:17:00.278Z,47.13
2022-09-06T09:19:27.597Z,48.76
2022-09-06T09:21:55.890Z,46.99
2022-09-06T09:24:25.171Z,48.60
2022-09-06T09:27:02.992Z,44.96
2022-09-06T09:29:35.655Z,43.95
2022-09-06T09:32:04.039Z,47.35
2022-09-06T09:34:36.461Z,45.15
2022-09-06T09:40:26.262Z,46.44
2022-09-06T09:42:57.079Z,44.98
2022-09-06T09:45:34.493Z,44.08
2022-09-06T09:48:24.099Z,41.89
2022-09-06T09:50:52.010Z,42.57
2022-09-06T09:53:22.553Z,44.38
2022-09-06T09:55:56.373Z,44.84
2022-09-06T09:58:37.278Z,44.92
2022-09-06T10:01:20.216Z,44.24
2022-09-06T10:09:35.605Z,43.58
2022-09-06T10:12:03.625Z,40.95
2022-09-06T10:14:39.723Z,42.38
2022-09-06T10:17:07.874Z,40.08
2022-09-06T10:19:45.891Z,40.55
2022-09-06T10:22:21.606Z,39.16
2022-09-06T10:25:08.732Z,39.81
2022-09-06T10:27:55.682Z,36.55
2022-09-06T10:30:39.900Z,38.01
2022-09-06T10:33:26.897Z,36.83
2022-09-06T10:35:58.090Z,37.21
2022-09-06T10:38:35.927Z,37.49
2022-09-06T10:41:25.992Z,37.40
2022-09-06T10:44:08.914Z,38.20
2022-09-06T10:46:37.360Z,36.03
2022-09-06T10:49:09.836Z,35.82
2022-09-06T10:51:44.266Z,38.71
2022-09-06T10:54:14.244Z,40.27
2022-09-06T10:56:54.156Z,38.90
2022-09-06T11:02:32.976Z,41.05
2022-09-06T11:10:55.647Z,38.70
2022-09-06T11:13:28.520Z,34.44
2022-09-06T11:16:21.816Z,35.26
2022-09-06T11:19:04.255Z,35.30
2022-09-06T11:21:49.958Z,35.11
2022-09-06T11:24:26.215Z,34.64
2022-09-06T11:27:06.885Z,35.78
2022-09-06T11:29:39.247Z,32.86
2022-09-06T11:32:38.045Z,33.07
2022-09-06T11:35:11.346Z,31.82
2022-09-06T11:37:44.053Z,32.19
2022-09-06T11:42:59.569Z,32.02
2022-09-06T11:45:44.854Z,30.46
2022-09-06T11:48:24.171Z,30.36
2022-09-06T11:51:01.881Z,29.33
2022-09-06T11:53:32.865Z,30.59
2022-09-06T11:56:00.571Z,29.90
2022-09-06T11:58:40.339Z,32.69
2022-09-06T12:01:14.167Z,32.13
2022-09-06T12:06:41.019Z,31.75
2022-09-06T12:09:39.454Z,33.59
2022-09-06T12:12:07.086Z,31.62
2022-09-06T12:14:43.388Z,31.18
2022-09-06T12:17:11.649Z,35.19
2022-09-06T12:19:44.379Z,32.45
2022-09-06T12:22:31.334Z,32.83
2022-09-06T12:25:02.072Z,32.98
2022-09-06T12:27:33.598Z,33.88
2022-09-06T12:30:07.080Z,36.04
2022-09-06T12:32:37.351Z,34.33
2022-09-06T12:38:06.679Z,39.06
2022-09-06T12:40:41.029Z,38.41
2022-09-06T12:43:11.986Z,40.92
2022-09-06T12:45:50.840Z,38.86
2022-09-06T12:48:35.534Z,38.98
2022-09-06T12:51:13.761Z,41.39
2022-09-06T12:53:41.189Z,41.35
2022-09-06T12:56:12.792Z,40.15
2022-09-06T12:58:40.914Z,41.80
2022-09-06T13:01:12.659Z,41.81
2022-09-06T13:04:02.950Z,42.58
2022-09-06T13:06:37.528Z,39.36
2022-09-06T13:09:08.229Z,38.40
2022-09-06T13:11:41.911Z,39.80
2022-09-06T13:14:17.857Z,40.58
2022-09-06T13:16:53.865Z,44.30
2022-09-06T13:19:51.182Z,42.08
2022-09-06T13:22:40.491Z,42.23
2022-09-06T13:25:18.638Z,40.48
2022-09-06T13:27:51.292Z,41.68
2022-09-06T13:30:42.495Z,43.58
2022-09-06T13:33:26.090Z,42.09
2022-09-06T13:36:24.583Z,44.04
2022-09-06T13:38:52.591Z,42.94
2022-09-06T13:41:25.949Z,42.18
2022-09-06T13:44:06.168Z,42.62
2022-09-06T13:46:36.361Z,42.10
2022-09-06T13:49:05.833Z,40.60
2022-09-06T13:51:34.215Z,41.10
2022-09-06T13:54:10.785Z,42.40
2022-09-06T13:56:39.550Z,41.32
2022-09-06T13:59:10.051Z,42.69
2022-09-06T14:01:39.959Z,43.48
2022-09-06T14:04:08.468Z,42.07
2022-09-06T14:06:37.046Z,42.71
2022-09-06T14:09:07.768Z,42.90
2022-09-06T14:11:36.798Z,42.98
2022-09-06T14:14:05.102Z,41.29
2022-09-06T14:16:33.986Z,39.81
2022-09-06T14:19:02.828Z,40.13
2022-09-06T14:21:30.269Z,39.32
2022-09-06T14:24:03.329Z,40.81
2022-09-06T14:26:33.344Z,38.51
2022-09-06T14:29:00.876Z,36.22
2022-09-06T14:31:29.531Z,37.33
2022-09-06T14:33:58.500Z,35.05
2022-09-06T14:36:29.464Z,34.45
2022-09-06T14:38:59.428Z,32.99
2022-09-06T14:41:27.509Z,34.37
2022-09-06T14:43:57.461Z,35.25
2022-09-06T14:46:27.094Z,35.04
2022-09-06T14:49:01.025Z,38.32
2022-09-06T14:51:30.340Z,38.93
2022-09-06T14:54:02.304Z,39.42
2022-09-06T14:56:30.506Z,39.03
2022-09-06T14:59:00.015Z,41.29
2022-09-06T15:01:32.931Z,42.12
2022-09-06T15:04:04.995Z,42.20
2022-09-06T15:06:34.086Z,40.88
2022-09-06T15:09:01.567Z,37.48
2022-09-06T15:11:41.519Z,33.42
2022-09-06T15:14:14.179Z,31.33
2022-09-06T15:16:42.624Z,29.74
2022-09-06T15:19:10.456Z,29.63
2022-09-06T15:21:37.952Z,29.48
2022-09-06T15:24:11.559Z,28.53
2022-09-06T15:26:41.715Z,29.01
2022-09-06T15:29:13.715Z,31.29
2022-09-06T15:31:42.765Z,32.86
2022-09-06T15:34:10.634Z,35.54
2022-09-06T15:36:39.136Z,38.19
2022-09-06T15:39:06.869Z,39.26
2022-09-06T15:41:37.546Z,40.39
2022-09-06T15:44:13.651Z,43.03
2022-09-06T15:46:41.425Z,42.64
2022-09-06T15:49:11.102Z,43.11
2022-09-06T15:51:40.265Z,43.96
2022-09-06T15:54:09.455Z,44.92
2022-09-06T15:56:37.174Z,43.77
2022-09-06T15:59:05.543Z,46.43
2022-09-06T16:01:34.332Z,46.06
2022-09-06T16:04:06.827Z,46.89
2022-09-06T16:06:37.842Z,46.16
2022-09-06T16:09:09.166Z,46.64
2022-09-06T16:11:37.628Z,46.45
2022-09-06T16:14:07.193Z,47.94
2022-09-06T16:16:36.053Z,48.65
2022-09-06T16:19:03.770Z,50.13
2022-09-06T16:21:33.545Z,49.33
2022-09-06T16:24:04.758Z,50.48
2022-09-06T16:26:35.824Z,50.94
2022-09-06T16:29:05.255Z,51.63
2022-09-06T16:31:39.961Z,54.11
2022-09-06T16:34:09.280Z,54.23
2022-09-06T16:36:37.599Z,54.60
2022-09-06T16:39:05.783Z,56.72
2022-09-06T16:41:43.697Z,55.69
2022-09-06T16:44:16.837Z,56.30
2022-09-06T16:46:47.178Z,56.42
2022-09-06T16:49:17.469Z,56.63
2022-09-06T16:51:46.137Z,57.56
2022-09-06T16:54:15.686Z,57.21
2022-09-06T16:56:44.165Z,59.19
2022-09-06T16:59:12.566Z,58.71
2022-09-06T17:01:43.685Z,58.54
2022-09-06T17:04:13.041Z,57.65
2022-09-06T17:06:47.057Z,58.57
2022-09-06T17:09:18.838Z,59.17
2022-09-06T17:11:50.206Z,60.08
2022-09-06T17:14:18.691Z,60.26
2022-09-06T17:17:05.189Z,59.99
2022-09-06T17:19:39.620Z,58.20
2022-09-06T17:22:11.538Z,58.53
2022-09-06T17:24:40.834Z,59.08
2022-09-06T17:27:09.558Z,60.78
2022-09-06T17:29:37.502Z,61.43
2022-09-06T17:32:10.291Z,62.22
2022-09-06T17:34:38.791Z,61.08
2022-09-06T17:37:06.676Z,62.18
2022-09-06T17:39:33.993Z,62.04
2022-09-06T17:42:02.294Z,62.42
2022-09-06T17:44:30.108Z,62.46
2022-09-06T17:47:14.067Z,62.86
2022-09-06T17:49:43.417Z,63.61
2022-09-06T17:52:11.560Z,63.55
2022-09-06T17:54:38.935Z,64.16
2022-09-06T17:57:06.446Z,63.84
2022-09-06T17:59:35.783Z,63.59
2022-09-06T18:02:04.353Z,65.87
2022-09-06T18:04:32.627Z,67.03
2022-09-06T18:06:59.927Z,66.30
2022-09-06T18:09:27.351Z,65.23
2022-09-06T18:11:55.055Z,64.27
2022-09-06T18:14:23.567Z,67.82
2022-09-06T18:16:53.121Z,67.75
2022-09-06T18:19:22.219Z,67.49
2022-09-06T18:21:50.247Z,68.33
2022-09-06T18:24:17.955Z,67.95
2022-09-06T18:26:46.276Z,68.01
2022-09-06T18:29:17.010Z,68.12
2022-09-06T18:31:44.798Z,68.20
2022-09-06T18:34:12.951Z,66.48
2022-09-06T18:36:40.907Z,67.24
2022-09-06T18:39:08.343Z,69.47
2022-09-06T18:41:54.544Z,71.68
2022-09-06T18:44:21.949Z,71.06
2022-09-06T18:46:50.164Z,70.40
2022-09-06T18:49:17.901Z,70.89
2022-09-06T18:51:45.990Z,70.36
2022-09-06T18:54:14.530Z,70.19
2022-09-06T18:56:42.675Z,69.81
2022-09-06T18:59:11.182Z,69.24
2022-09-06T19:01:44.045Z,68.91
2022-09-06T19:04:12.479Z,69.42
2022-09-06T19:06:41.456Z,69.76
2022-09-06T19:09:13.629Z,69.21
2022-09-06T19:11:43.151Z,69.64
2022-09-06T19:14:10.794Z,69.92
2022-09-06T19:16:38.303Z,70.19
2022-09-06T19:19:07.319Z,71.18
2022-09-06T19:21:39.373Z,71.06
2022-09-06T19:24:10.684Z,70.35
2022-09-06T19:26:40.183Z,70.56
2022-09-06T19:29:09.486Z,71.15
2022-09-06T19:31:38.180Z,71.14
2022-09-06T19:34:06.065Z,71.07
2022-09-06T19:36:34.170Z,71.28
2022-09-06T19:39:06.553Z,71.31
2022-09-06T19:41:36.499Z,70.86
2022-09-06T19:44:06.092Z,70.85
2022-09-06T19:46:35.024Z,69.74
2022-09-06T19:49:02.520Z,69.53
2022-09-06T19:51:30.361Z,70.85
2022-09-06T19:53:58.265Z,71.43
2022-09-06T19:56:26.892Z,71.25
2022-09-06T19:58:55.782Z,71.59
2022-09-06T20:01:24.067Z,71.24
2022-09-06T20:03:52.547Z,71.17
2022-09-06T20:06:19.837Z,71.40
2022-09-06T20:08:50.156Z,71.53
2022-09-06T20:11:18.536Z,71.38
2022-09-06T20:13:45.970Z,70.96
2022-09-06T20:16:13.767Z,71.56
2022-09-06T20:18:41.900Z,71.81
2022-09-06T20:21:09.190Z,71.68
2022-09-06T20:23:36.945Z,71.62
2022-09-06T20:26:06.221Z,71.91
2022-09-06T20:28:33.977Z,71.44
2022-09-06T20:31:02.539Z,71.89
2022-09-06T20:33:30.369Z,72.03
2022-09-06T20:35:58.794Z,71.62
2022-09-06T20:38:26.196Z,71.20
2022-09-06T20:40:57.651Z,70.89
2022-09-06T20:43:25.261Z,71.50
2022-09-06T20:45:52.960Z,72.04
2022-09-06T20:48:20.673Z,72.31
2022-09-06T20:50:56.112Z,72.55
2022-09-06T20:53:23.771Z,72.56
2022-09-06T20:55:58.161Z,72.78
2022-09-06T20:58:25.845Z,73.10
2022-09-06T21:00:53.356Z,72.49
2022-09-06T21:03:21.412Z,71.80
2022-09-06T21:05:48.989Z,71.85
2022-09-06T21:08:16.870Z,72.45
2022-09-06T21:10:44.325Z,72.23
2022-09-06T21:13:12.456Z,70.58
2022-09-06T21:15:43.101Z,71.86
2022-09-06T21:18:10.416Z,73.95
2022-09-06T21:20:38.061Z,73.38
2022-09-06T21:23:05.713Z,73.39
2022-09-06T21:25:32.849Z,74.53
2022-09-06T21:28:00.411Z,73.70
2022-09-06T21:30:27.670Z,73.66
2022-09-06T21:32:55.207Z,73.70
2022-09-06T21:35:22.901Z,72.97
2022-09-06T21:37:51.198Z,72.34
2022-09-06T21:40:18.382Z,73.51
2022-09-06T21:42:46.327Z,73.71
2022-09-06T21:45:13.439Z,73.48
2022-09-06T21:47:41.468Z,73.38
2022-09-06T21:50:09.440Z,73.18
2022-09-06T21:52:36.684Z,73.92
2022-09-06T21:55:06.365Z,74.73
2022-09-06T21:57:33.955Z,74.76
2022-09-06T22:00:01.176Z,74.56
2022-09-06T22:02:28.530Z,74.43
2022-09-06T22:04:56.278Z,75.66
2022-09-06T22:07:23.434Z,75.40
2022-09-06T22:09:50.618Z,76.38
2022-09-06T22:12:18.197Z,76.73
2022-09-06T22:14:46.867Z,76.14
2022-09-06T22:17:14.006Z,75.42
2022-09-06T22:19:41.667Z,75.93
2022-09-06T22:22:08.830Z,75.25
2022-09-06T22:24:36.547Z,75.41
2022-09-06T22:27:04.259Z,76.94
2022-09-06T22:29:31.366Z,75.80
2022-09-06T22:31:58.503Z,75.09
2022-09-06T22:34:26.093Z,75.33
2022-09-06T22:36:53.318Z,76.87
2022-09-06T22:39:20.675Z,75.80
2022-09-06T22:41:48.380Z,77.13
2022-09-06T22:44:15.906Z,76.65
2022-09-06T22:46:43.131Z,75.64
2022-09-06T22:49:10.634Z,76.13
2022-09-06T22:51:37.846Z,76.00
2022-09-06T22:54:05.249Z,75.34
2022-09-06T22:56:32.793Z,75.43
2022-09-06T22:59:00.672Z,75.26
2022-09-06T23:01:27.948Z,74.26
2022-09-06T23:03:55.522Z,74.36
2022-09-06T23:06:22.636Z,75.03
2022-09-06T23:08:49.865Z,76.26
2022-09-06T23:11:18.850Z,75.46
2022-09-06T23:13:47.301Z,75.97
2022-09-06T23:16:19.491Z,76.46
2022-09-06T23:18:47.143Z,76.28
2022-09-06T23:21:15.497Z,77.26
2022-09-06T23:23:43.025Z,77.02
2022-09-06T23:26:11.822Z,76.86
2022-09-06T23:28:39.423Z,76.28
2022-09-06T23:31:08.425Z,76.29
2022-09-06T23:33:37.472Z,75.32
2022-09-06T23:36:05.273Z,75.01
2022-09-06T23:38:33.727Z,75.37
2022-09-06T23:41:01.897Z,76.03
2022-09-06T23:43:29.256Z,75.19
2022-09-06T23:45:56.476Z,75.34
2022-09-06T23:48:24.230Z,75.61
2022-09-06T23:50:51.379Z,75.71
2022-09-06T23:53:18.605Z,76.18
2022-09-06T23:55:46.053Z,76.96
2022-09-06T23:58:13.427Z,76.12
